Aviation Digital Data Service (ADDS)

Output produced by METARs form (1930 UTC 31 January 2023)
found at http://www.aviationweather.gov/metar/data/
 
METAR text: WSSL 311900Z VRB02KT CAVOK 24/23 Q1009
Conditions at: WSSL (SINGAPORE/SELETA, SG) observed 1900 UTC 31 January 2023
Temperature: 24.0°C (75°F)
Dewpoint: 23.0°C (73°F) [RH = 94%]
Pressure (altimeter): 29.79 inches Hg (1009.0 mb)
Winds: variable direction winds at 2 MPH (2 knots; 1.0 m/s)
Visibility: 6 or more miles (10+ km)
Ceiling: ceiling and visibility are OK
Clouds: unknown
Weather: no significant weather observed at this time

Forecast for: WSSL (SINGAPORE/SELETA, SG)
Text: TAF WSSL 311700Z 3118/0200 01009KT 9999 FEW015 BKN030
Forecast period: 1800 UTC 31 January 2023 to 0000 UTC 02 February 2023
Forecast type: FROM: standard forecast or significant change
Winds: from the N (10 degrees) at 10 MPH (9 knots; 4.6 m/s)
Visibility: 6 or more miles (10+ km)
Ceiling: 3000 feet AGL
Clouds: few clouds at 1500 feet AGL
broken clouds at 3000 feet AGL
Weather: no significant weather forecast for this period
Text: TEMPO 0107/0110 4000 SHRA FEW012CB BKN015
Forecast period: 0700 to 1000 UTC 01 February 2023
Forecast type: TEMPORARY: The following changes expected for less than half the time period
Visibility: 2.49 miles (4.01 km)
Ceiling: 1500 feet AGL
Clouds: few clouds at 1200 feet AGL
broken clouds at 1500 feet AGL
Weather: SHRA  (rain showers)